Time;durP1;ratioP1;P1;durP2;ratioP2;P2;SDS_P1;SDS_P2;PMS_P1;PMS_P2;Temp;Humidity;BMP_temperature;BMP_pressure;BME280_temperature;BME280_humidity;BME280_pressure;Samples;Min_cycle;Max_cycle;Signal;HPM_P1;HPM_P2
2022/07/11 00:00:01;;;;;;;4.20;2.60;;;13.90;99.90;;;;;;5024708;28;20037;-61
2022/07/11 00:02:28;;;;;;;4.85;2.47;;;13.90;99.90;;;;;;5010365;28;20035;-61
2022/07/11 00:04:53;;;;;;;5.10;2.65;;;14.00;99.90;;;;;;5010841;28;20033;-61
2022/07/11 00:07:19;;;;;;;4.40;2.50;;;14.10;99.90;;;;;;5015136;28;20036;-61
2022/07/11 00:09:45;;;;;;;4.85;2.58;;;14.10;99.90;;;;;;5013288;28;20608;-61
2022/07/11 00:12:12;;;;;;;5.50;2.58;;;14.00;99.90;;;;;;5008554;28;20030;-61
2022/07/11 00:14:39;;;;;;;5.70;2.47;;;14.00;99.90;;;;;;5006862;28;20065;-61
2022/07/11 00:17:07;;;;;;;3.35;2.03;;;14.10;99.90;;;;;;5011109;28;20026;-61
2022/07/11 00:19:33;;;;;;;5.80;2.50;;;14.00;99.90;;;;;;5015361;28;20056;-61
2022/07/11 00:21:58;;;;;;;4.35;2.40;;;14.00;99.90;;;;;;5024108;28;20101;-61
2022/07/11 00:24:24;;;;;;;6.38;2.50;;;14.00;99.90;;;;;;5005289;28;20041;-61
2022/07/11 00:26:50;;;;;;;4.38;2.65;;;14.00;99.90;;;;;;5009360;28;20101;-61
2022/07/11 00:29:16;;;;;;;7.10;2.60;;;14.00;99.90;;;;;;5009867;28;20109;-61
2022/07/11 00:31:42;;;;;;;5.70;2.53;;;14.00;99.90;;;;;;5013390;28;20036;-61
2022/07/11 00:34:08;;;;;;;3.97;2.40;;;14.10;99.90;;;;;;5011591;28;20038;-61
2022/07/11 00:36:33;;;;;;;6.97;2.72;;;14.10;99.90;;;;;;5007553;28;20300;-61
2022/07/11 00:38:59;;;;;;;4.60;2.58;;;14.00;99.90;;;;;;5006523;28;20383;-61
2022/07/11 00:41:26;;;;;;;5.93;2.70;;;14.00;99.90;;;;;;5020631;28;20029;-61
2022/07/11 00:43:56;;;;;;;4.63;2.70;;;14.00;99.90;;;;;;5021689;28;20146;-61
2022/07/11 00:46:22;;;;;;;;;;;14.00;99.90;;;;;;5007417;28;20532;-61
2022/07/11 00:48:48;;;;;;;4.63;2.50;;;14.00;99.90;;;;;;5007989;28;19996;-61
2022/07/11 00:51:15;;;;;;;8.20;2.30;;;14.00;99.90;;;;;;5006155;28;20034;-61
2022/07/11 00:53:41;;;;;;;4.13;2.70;;;14.00;99.90;;;;;;5005533;28;20529;-61
2022/07/11 00:56:08;;;;;;;8.27;2.78;;;14.00;99.90;;;;;;5007250;28;20042;-61
2022/07/11 00:58:34;;;;;;;4.20;2.70;;;14.00;99.90;;;;;;5030765;28;20033;-61
2022/07/11 01:01:01;;;;;;;4.43;2.65;;;14.00;99.90;;;;;;5021034;28;20026;-61
2022/07/11 01:03:26;;;;;;;7.15;2.92;;;14.10;99.90;;;;;;5011344;28;20796;-61
2022/07/11 01:05:52;;;;;;;5.25;2.75;;;14.10;99.90;;;;;;5009721;28;20057;-61
2022/07/11 01:08:18;;;;;;;5.55;2.67;;;14.00;99.90;;;;;;5009197;28;20034;-61
2022/07/11 01:10:43;;;;;;;4.45;2.50;;;14.00;99.90;;;;;;5010388;28;20029;-61
2022/07/11 01:13:09;;;;;;;6.13;2.95;;;14.00;99.90;;;;;;5010285;28;20080;-61
2022/07/11 01:15:36;;;;;;;8.80;2.65;;;14.00;99.90;;;;;;5010098;28;20668;-61
2022/07/11 01:18:05;;;;;;;5.65;3.00;;;14.00;99.90;;;;;;5026166;28;20049;-61
2022/07/11 01:20:31;;;;;;;3.58;2.38;;;14.00;99.90;;;;;;5014503;28;20485;-61
2022/07/11 01:23:09;;;;;;;3.97;2.47;;;14.00;99.90;;;;;;5009493;28;20042;-61
2022/07/11 01:25:34;;;;;;;8.27;3.20;;;14.00;99.90;;;;;;5007681;28;20030;-61
2022/07/11 01:28:06;;;;;;;8.23;2.70;;;13.90;99.90;;;;;;5013941;28;20095;-61
2022/07/11 01:30:33;;;;;;;5.47;2.63;;;13.90;99.90;;;;;;5016136;28;20041;-61
2022/07/11 01:32:59;;;;;;;5.05;2.75;;;13.90;99.90;;;;;;5023982;28;20079;-61
2022/07/11 01:35:27;;;;;;;7.00;2.88;;;14.00;99.90;;;;;;5009387;28;20364;-61
2022/07/11 01:37:53;;;;;;;4.18;2.53;;;13.90;99.90;;;;;;5016452;28;20597;-61
2022/07/11 01:40:19;;;;;;;6.80;2.70;;;14.00;99.90;;;;;;5009793;28;20026;-61
2022/07/11 01:42:45;;;;;;;5.45;2.70;;;14.00;99.90;;;;;;5017452;28;20103;-61
2022/07/11 01:45:11;;;;;;;4.50;2.50;;;14.00;99.90;;;;;;5010684;28;20026;-61
2022/07/11 01:47:38;;;;;;;2.92;2.47;;;14.00;99.90;;;;;;5020965;28;20090;-61
2022/07/11 01:50:04;;;;;;;5.13;2.95;;;13.90;99.90;;;;;;5022295;28;20021;-61
2022/07/11 01:52:30;;;;;;;4.53;2.50;;;13.90;99.90;;;;;;5013063;28;20116;-61
2022/07/11 01:54:55;;;;;;;4.53;2.42;;;13.90;99.90;;;;;;5021474;28;20080;-61
2022/07/11 01:57:21;;;;;;;6.45;2.78;;;13.80;99.90;;;;;;5016648;28;20154;-61
2022/07/11 01:59:47;;;;;;;6.53;2.63;;;13.80;99.90;;;;;;5004485;28;20535;-61
2022/07/11 02:02:13;;;;;;;3.92;2.70;;;13.80;99.90;;;;;;5015395;28;20052;-61
2022/07/11 02:04:39;;;;;;;6.15;2.97;;;13.80;99.90;;;;;;5019104;28;20049;-61
2022/07/11 02:07:05;;;;;;;5.30;2.88;;;13.90;99.90;;;;;;5020406;28;20030;-61
2022/07/11 02:09:31;;;;;;;6.85;3.28;;;13.80;99.90;;;;;;5011907;28;20428;-61
2022/07/11 02:11:56;;;;;;;4.07;2.65;;;13.80;99.90;;;;;;5019232;28;20113;-61
2022/07/11 02:14:22;;;;;;;6.78;2.92;;;13.90;99.90;;;;;;5018786;28;20030;-61
2022/07/11 02:16:48;;;;;;;6.05;3.00;;;14.00;99.90;;;;;;5009591;28;20033;-61
2022/07/11 02:19:13;;;;;;;4.55;3.17;;;14.00;99.90;;;;;;5011302;28;20034;-61
2022/07/11 02:21:39;;;;;;;4.32;2.78;;;13.90;99.90;;;;;;5009389;28;20251;-62
2022/07/11 02:24:05;;;;;;;4.43;2.58;;;13.90;99.90;;;;;;5010912;28;20054;-61
2022/07/11 02:26:30;;;;;;;4.43;2.65;;;13.80;99.90;;;;;;5007943;28;20034;-61
2022/07/11 02:28:56;;;;;;;4.88;2.67;;;13.80;99.90;;;;;;5011145;28;20032;-61
2022/07/11 02:31:23;;;;;;;5.10;2.85;;;13.80;99.90;;;;;;5010461;28;20029;-61
2022/07/11 02:33:48;;;;;;;5.68;2.72;;;13.80;99.90;;;;;;5010999;28;20113;-61
2022/07/11 02:36:14;;;;;;;6.05;3.10;;;13.90;99.90;;;;;;5011048;28;20550;-61
2022/07/11 02:38:42;;;;;;;9.23;3.05;;;14.00;99.90;;;;;;5013592;28;20164;-61
2022/07/11 02:41:07;;;;;;;6.22;3.00;;;14.00;99.90;;;;;;5010160;28;20084;-61
2022/07/11 02:43:33;;;;;;;4.60;3.00;;;14.10;99.90;;;;;;5010007;28;20033;-61
2022/07/11 02:45:59;;;;;;;5.63;2.83;;;14.20;99.90;;;;;;5010770;28;20592;-61
2022/07/11 02:48:25;;;;;;;4.95;2.67;;;14.20;99.90;;;;;;5009701;28;20034;-61
2022/07/11 02:50:51;;;;;;;5.57;2.63;;;14.10;99.90;;;;;;5011764;28;20084;-61
2022/07/11 02:53:17;;;;;;;4.22;2.70;;;14.10;99.90;;;;;;5005605;28;20029;-61
2022/07/11 02:55:42;;;;;;;5.65;2.75;;;14.00;99.90;;;;;;5003923;28;20133;-61
2022/07/11 02:58:08;;;;;;;4.75;2.80;;;14.00;99.90;;;;;;5006103;28;20117;-62
2022/07/11 03:00:34;;;;;;;5.07;2.97;;;14.00;99.90;;;;;;5000933;28;20458;-61
2022/07/11 03:03:01;;;;;;;5.50;3.10;;;13.90;99.90;;;;;;5010342;28;20124;-61
2022/07/11 03:05:27;;;;;;;11.00;3.20;;;13.90;99.90;;;;;;5009575;28;20033;-61
2022/07/11 03:07:53;;;;;;;4.53;2.80;;;14.00;99.90;;;;;;5010337;28;20032;-61
2022/07/11 03:10:19;;;;;;;7.03;2.90;;;14.00;99.90;;;;;;5009131;28;20112;-61
2022/07/11 03:12:45;;;;;;;6.90;3.08;;;14.00;99.90;;;;;;5009068;28;20280;-61
2022/07/11 03:15:11;;;;;;;4.80;2.80;;;14.00;99.90;;;;;;5015232;28;20029;-61
2022/07/11 03:17:37;;;;;;;6.07;2.80;;;14.00;99.90;;;;;;5027631;28;20497;-61
2022/07/11 03:20:05;;;;;;;4.78;3.08;;;14.00;99.90;;;;;;5025296;28;20052;-61
2022/07/11 03:22:31;;;;;;;8.20;3.17;;;14.00;99.90;;;;;;5016628;28;20042;-61
2022/07/11 03:24:56;;;;;;;6.30;3.20;;;14.00;99.90;;;;;;5009288;28;20712;-61
2022/07/11 03:27:22;;;;;;;3.90;3.08;;;14.00;99.90;;;;;;5009318;28;20060;-61
2022/07/11 03:29:48;;;;;;;7.70;3.70;;;13.90;99.90;;;;;;5008299;28;20029;-61
2022/07/11 03:32:13;;;;;;;4.55;2.50;;;13.80;99.90;;;;;;5020600;28;20026;-61
2022/07/11 03:34:40;;;;;;;4.25;3.10;;;13.80;99.90;;;;;;5003721;28;20040;-61
2022/07/11 03:37:06;;;;;;;5.75;2.70;;;13.70;99.90;;;;;;5021044;28;20045;-61
2022/07/11 03:39:32;;;;;;;5.80;2.88;;;13.70;99.90;;;;;;5013125;28;20029;-61
2022/07/11 03:41:58;;;;;;;6.90;3.30;;;13.70;99.90;;;;;;5009672;28;20443;-61
2022/07/11 03:44:24;;;;;;;6.93;3.00;;;13.80;99.90;;;;;;5009450;28;20064;-61
2022/07/11 03:46:49;;;;;;;7.70;3.17;;;13.80;99.90;;;;;;5008953;28;20463;-61
2022/07/11 03:49:15;;;;;;;10.65;3.47;;;13.80;99.90;;;;;;5009405;28;20040;-61
2022/07/11 03:51:41;;;;;;;7.32;3.03;;;13.70;99.90;;;;;;5008791;28;20018;-61
2022/07/11 03:54:07;;;;;;;10.48;3.40;;;13.70;99.90;;;;;;5008700;28;20045;-61
2022/07/11 03:56:33;;;;;;;11.45;3.17;;;13.70;99.90;;;;;;5009051;28;20037;-62
2022/07/11 03:58:59;;;;;;;5.15;2.85;;;13.80;99.90;;;;;;5007495;28;20381;-61
2022/07/11 04:01:24;;;;;;;5.28;3.22;;;13.80;99.90;;;;;;5009604;28;20498;-61
2022/07/11 04:03:50;;;;;;;8.52;3.05;;;13.70;99.90;;;;;;5011119;28;20034;-61
2022/07/11 04:06:16;;;;;;;7.97;3.65;;;13.70;99.90;;;;;;5003130;28;20394;-61
2022/07/11 04:08:42;;;;;;;5.75;2.90;;;13.80;99.90;;;;;;5008726;28;20033;-60
2022/07/11 04:11:07;;;;;;;5.40;2.95;;;13.80;99.90;;;;;;5017550;28;20033;-60
2022/07/11 04:13:33;;;;;;;6.88;3.22;;;13.90;99.90;;;;;;5013090;28;20441;-60
2022/07/11 04:15:59;;;;;;;12.82;3.20;;;13.90;99.90;;;;;;5009556;28;20030;-60
2022/07/11 04:18:25;;;;;;;5.90;3.10;;;13.80;99.90;;;;;;5007763;28;20416;-60
2022/07/11 04:20:51;;;;;;;8.20;2.90;;;13.80;99.90;;;;;;5008875;28;20049;-60
2022/07/11 04:23:17;;;;;;;5.55;3.17;;;13.90;99.90;;;;;;5022735;28;20514;-61
2022/07/11 04:25:43;;;;;;;8.05;3.60;;;13.90;99.90;;;;;;5025648;28;20047;-60
2022/07/11 04:28:08;;;;;;;7.40;3.42;;;13.90;99.90;;;;;;5010849;28;20030;-60
2022/07/11 04:30:34;;;;;;;6.85;3.10;;;13.90;99.90;;;;;;5008942;28;20533;-61
2022/07/11 04:33:00;;;;;;;7.60;3.60;;;13.90;99.90;;;;;;5010389;28;20042;-60
2022/07/11 04:35:30;;;;;;;10.05;3.53;;;13.90;99.90;;;;;;5013026;28;20391;-60
2022/07/11 04:37:57;;;;;;;6.32;3.28;;;13.90;99.90;;;;;;5017153;28;20036;-60
2022/07/11 04:40:23;;;;;;;10.43;3.50;;;13.80;99.90;;;;;;5029339;28;20037;-60
2022/07/11 04:42:49;;;;;;;4.75;3.17;;;13.80;99.90;;;;;;5024573;28;20179;-61
2022/07/11 04:45:15;;;;;;;6.72;3.05;;;13.90;99.90;;;;;;5027684;28;20120;-60
2022/07/11 04:47:41;;;;;;;4.60;3.22;;;13.90;99.90;;;;;;5017603;28;20026;-60
2022/07/11 04:50:08;;;;;;;8.93;3.25;;;13.90;99.90;;;;;;5021388;28;20037;-60
2022/07/11 04:52:34;;;;;;;6.03;3.38;;;13.90;99.90;;;;;;5031829;28;20029;-61
2022/07/11 04:54:59;;;;;;;7.00;3.50;;;13.90;99.90;;;;;;5031669;28;20119;-61
2022/07/11 04:57:26;;;;;;;5.90;3.28;;;13.90;99.90;;;;;;5012254;28;20422;-61
2022/07/11 04:59:51;;;;;;;10.38;3.38;;;14.00;99.90;;;;;;5020856;28;20068;-61
2022/07/11 05:02:17;;;;;;;5.40;3.50;;;14.00;99.90;;;;;;5021535;28;20057;-61
2022/07/11 05:04:43;;;;;;;5.95;3.30;;;14.10;99.90;;;;;;5011694;28;20030;-61
2022/07/11 05:07:09;;;;;;;5.20;3.08;;;14.00;99.90;;;;;;5021852;28;20052;-61
2022/07/11 05:09:35;;;;;;;8.35;3.45;;;14.10;99.90;;;;;;5013672;28;20060;-61
2022/07/11 05:12:01;;;;;;;6.13;3.15;;;14.20;99.90;;;;;;5026130;28;20038;-61
2022/07/11 05:14:26;;;;;;;10.30;3.22;;;14.20;99.90;;;;;;5012842;28;20030;-61
2022/07/11 05:16:52;;;;;;;6.30;3.03;;;14.20;99.90;;;;;;5013504;28;20026;-61
2022/07/11 05:19:17;;;;;;;7.13;3.08;;;14.20;99.90;;;;;;5031144;28;20030;-61
2022/07/11 05:21:43;;;;;;;4.40;2.90;;;14.20;99.90;;;;;;5031354;28;20045;-61
2022/07/11 05:24:09;;;;;;;5.72;2.58;;;14.30;99.90;;;;;;5009906;28;20050;-61
2022/07/11 05:26:34;;;;;;;5.45;2.80;;;14.30;99.90;;;;;;5009727;28;20045;-61
2022/07/11 05:29:00;;;;;;;5.63;3.08;;;14.40;99.90;;;;;;5012346;28;20476;-61
2022/07/11 05:31:26;;;;;;;7.53;2.78;;;14.50;99.90;;;;;;5010523;28;20041;-61
2022/07/11 05:33:52;;;;;;;6.97;2.85;;;14.50;99.90;;;;;;5010427;28;20188;-61
2022/07/11 05:36:17;;;;;;;6.50;3.10;;;14.60;99.90;;;;;;5016075;28;20105;-61
2022/07/11 05:38:43;;;;;;;5.28;3.08;;;14.70;99.90;;;;;;5018824;28;20095;-61
2022/07/11 05:41:09;;;;;;;8.40;3.00;;;14.90;99.90;;;;;;5014597;28;20030;-61
2022/07/11 05:43:34;;;;;;;10.13;3.17;;;14.90;99.90;;;;;;5010962;28;20038;-61
2022/07/11 05:46:04;;;;;;;7.18;2.95;;;14.90;99.90;;;;;;4993307;28;20546;-61
2022/07/11 05:48:29;;;;;;;9.50;2.95;;;15.00;99.90;;;;;;4992320;28;20034;-61
2022/07/11 05:50:55;;;;;;;6.50;3.00;;;15.00;99.90;;;;;;4991491;28;20038;-61
2022/07/11 05:53:20;;;;;;;8.00;2.63;;;15.00;99.90;;;;;;5004894;28;20391;-61
2022/07/11 05:55:46;;;;;;;8.23;3.25;;;15.00;99.90;;;;;;5010591;28;20054;-61
2022/07/11 05:58:12;;;;;;;7.63;4.13;;;15.00;99.90;;;;;;5011676;28;20029;-61
2022/07/11 06:00:37;;;;;;;5.80;2.83;;;15.00;99.90;;;;;;5010692;28;20037;-61
2022/07/11 06:03:03;;;;;;;6.45;2.95;;;15.00;99.90;;;;;;5011420;28;20030;-61
2022/07/11 06:05:29;;;;;;;5.68;3.08;;;15.00;99.90;;;;;;5010217;28;20831;-61
2022/07/11 06:10:39;;;;;;;6.90;3.03;;;15.10;99.90;;;;;;5010481;28;20076;-61
2022/07/11 06:13:04;;;;;;;10.35;3.63;;;15.10;99.90;;;;;;5011358;28;20471;-61
2022/07/11 06:15:30;;;;;;;7.28;3.38;;;15.10;99.90;;;;;;5011310;28;20068;-61
2022/07/11 06:17:56;;;;;;;7.20;3.13;;;15.20;99.90;;;;;;5010286;28;20815;-61
2022/07/11 06:20:22;;;;;;;5.35;3.65;;;15.30;99.90;;;;;;5011346;28;20026;-61
2022/07/11 06:22:48;;;;;;;5.78;3.20;;;15.30;99.90;;;;;;5009275;28;20493;-61
2022/07/11 06:25:13;;;;;;;8.25;3.38;;;15.40;99.90;;;;;;5011220;28;20030;-61
2022/07/11 06:27:39;;;;;;;7.72;3.22;;;15.50;99.90;;;;;;5010337;28;20578;-61
2022/07/11 06:30:05;;;;;;;7.10;3.25;;;15.50;99.90;;;;;;5011410;28;20386;-61
2022/07/11 06:32:31;;;;;;;6.68;3.30;;;15.60;99.90;;;;;;5011049;28;20030;-61
2022/07/11 06:34:57;;;;;;;9.63;3.70;;;15.60;99.90;;;;;;5010222;28;20224;-61
2022/07/11 06:37:23;;;;;;;7.10;3.92;;;15.70;99.90;;;;;;5008801;28;20033;-61
2022/07/11 06:39:48;;;;;;;5.45;3.25;;;15.70;99.90;;;;;;5009530;28;20030;-61
2022/07/11 06:42:14;;;;;;;5.97;3.47;;;15.80;99.90;;;;;;5010507;28;20565;-61
2022/07/11 06:44:40;;;;;;;8.43;3.92;;;15.90;99.90;;;;;;5010036;28;20034;-61
2022/07/11 06:47:06;;;;;;;7.55;3.40;;;15.90;99.90;;;;;;5010730;28;20412;-61
2022/07/11 06:49:32;;;;;;;11.50;3.25;;;16.00;99.90;;;;;;5010797;28;20030;-61
2022/07/11 06:51:58;;;;;;;7.15;3.88;;;16.10;99.90;;;;;;5004138;28;20108;-60
2022/07/11 06:54:24;;;;;;;9.23;4.00;;;16.10;99.90;;;;;;5008750;28;20138;-61
2022/07/11 06:56:49;;;;;;;6.15;3.20;;;16.30;99.90;;;;;;5009909;28;20474;-61
2022/07/11 06:59:15;;;;;;;6.32;3.58;;;16.40;99.90;;;;;;5010651;28;20101;-61
2022/07/11 07:01:40;;;;;;;14.90;3.63;;;16.50;99.90;;;;;;5006511;28;20462;-61
2022/07/11 07:04:06;;;;;;;8.73;3.58;;;16.50;99.90;;;;;;5010390;28;20557;-61
2022/07/11 07:06:32;;;;;;;8.07;3.30;;;16.50;99.90;;;;;;5010247;28;20030;-61
2022/07/11 07:08:57;;;;;;;6.30;3.50;;;16.50;99.90;;;;;;5025037;28;20033;-61
2022/07/11 07:11:23;;;;;;;7.22;3.78;;;16.50;99.90;;;;;;5009779;28;20026;-61
2022/07/11 07:13:50;;;;;;;6.75;3.92;;;16.50;99.90;;;;;;5008749;28;20113;-61
2022/07/11 07:16:16;;;;;;;4.85;3.38;;;16.60;99.90;;;;;;5010696;28;20464;-61
2022/07/11 07:18:45;;;;;;;5.43;3.40;;;16.60;99.90;;;;;;5008984;28;20037;-61
2022/07/11 07:21:11;;;;;;;6.80;3.78;;;16.70;99.90;;;;;;5004852;28;20041;-61
2022/07/11 07:23:37;;;;;;;5.85;3.63;;;16.60;99.90;;;;;;4990432;28;20197;-61
2022/07/11 07:26:02;;;;;;;6.47;3.90;;;16.70;99.90;;;;;;5010376;28;20048;-61
2022/07/11 07:28:28;;;;;;;6.95;3.30;;;16.80;99.90;;;;;;5013264;28;20022;-61
2022/07/11 07:30:54;;;;;;;5.93;3.53;;;16.80;99.90;;;;;;5008291;28;20034;-61
2022/07/11 07:33:20;;;;;;;5.93;3.78;;;16.90;99.90;;;;;;5009971;28;20069;-61
2022/07/11 07:35:45;;;;;;;8.95;3.47;;;17.00;99.90;;;;;;5009018;28;20054;-61
2022/07/11 07:38:11;;;;;;;7.30;3.38;;;17.00;99.90;;;;;;5008180;28;20025;-61
2022/07/11 07:40:37;;;;;;;10.52;3.30;;;17.00;99.90;;;;;;5010030;28;20034;-61
2022/07/11 07:43:02;;;;;;;5.72;3.28;;;17.10;99.90;;;;;;5008113;28;20037;-61
2022/07/11 07:45:28;;;;;;;10.93;3.28;;;17.10;99.90;;;;;;5009848;28;20026;-60
2022/07/11 07:47:54;;;;;;;7.78;3.30;;;17.20;99.90;;;;;;5009099;28;20025;-61
2022/07/11 07:50:22;;;;;;;4.45;2.95;;;17.30;99.90;;;;;;5009763;28;20030;-61
2022/07/11 07:52:47;;;;;;;6.25;2.70;;;17.20;99.90;;;;;;5008806;28;20041;-61
2022/07/11 07:55:13;;;;;;;7.03;3.17;;;17.30;99.90;;;;;;5009505;28;20050;-61
2022/07/11 07:57:39;;;;;;;6.13;2.78;;;17.50;99.90;;;;;;5008839;28;20030;-61
2022/07/11 08:02:50;;;;;;;4.88;2.80;;;17.70;99.90;;;;;;5008603;28;20041;-61
2022/07/11 08:05:19;;;;;;;4.97;2.72;;;17.70;99.90;;;;;;5007000;28;20883;-61
2022/07/11 08:07:45;;;;;;;5.95;2.72;;;17.80;99.90;;;;;;5012787;28;20034;-61
2022/07/11 08:10:12;;;;;;;5.63;3.05;;;17.70;99.90;;;;;;5013621;28;20033;-61
2022/07/11 08:12:38;;;;;;;6.35;2.60;;;17.80;99.90;;;;;;5013777;28;20026;-61
2022/07/11 08:15:04;;;;;;;5.72;2.70;;;17.80;99.90;;;;;;5012745;28;20025;-61
2022/07/11 08:17:30;;;;;;;6.43;3.08;;;17.90;99.90;;;;;;5013544;28;20662;-61
2022/07/11 08:19:56;;;;;;;4.88;2.72;;;17.90;99.90;;;;;;5011614;28;20036;-61
2022/07/11 08:22:21;;;;;;;4.25;2.92;;;18.10;99.90;;;;;;5013190;28;20104;-61
2022/07/11 08:24:47;;;;;;;5.05;3.08;;;18.20;99.90;;;;;;5011373;28;20061;-61
2022/07/11 08:27:12;;;;;;;6.50;3.05;;;18.30;99.90;;;;;;5013406;28;20038;-61
2022/07/11 08:29:38;;;;;;;3.47;2.50;;;18.60;99.90;;;;;;5013666;28;20029;-61
2022/07/11 08:32:04;;;;;;;5.15;2.65;;;18.90;99.90;;;;;;5012599;28;20026;-61
2022/07/11 08:34:30;;;;;;;6.80;3.00;;;18.90;99.90;;;;;;5013292;28;20123;-61
2022/07/11 08:36:55;;;;;;;6.38;2.80;;;18.90;99.90;;;;;;5011181;28;20112;-61
2022/07/11 08:39:21;;;;;;;8.43;3.45;;;18.90;99.90;;;;;;5013177;28;20086;-62
2022/07/11 08:41:46;;;;;;;5.68;3.45;;;18.90;99.90;;;;;;5012322;28;20036;-61
2022/07/11 08:44:13;;;;;;;5.20;2.97;;;18.80;99.90;;;;;;5013262;28;20065;-61
2022/07/11 08:46:43;;;;;;;5.30;3.17;;;18.70;99.90;;;;;;5013121;28;20034;-61
2022/07/11 08:49:11;;;;;;;7.55;3.78;;;18.70;99.90;;;;;;5011509;28;20076;-61
2022/07/11 08:51:37;;;;;;;7.82;2.83;;;18.80;99.90;;;;;;5012934;28;20037;-61
2022/07/11 08:54:04;;;;;;;6.78;3.03;;;19.00;99.90;;;;;;5011555;28;20076;-61
2022/07/11 08:56:30;;;;;;;11.05;2.85;;;19.20;99.90;;;;;;5012881;28;20129;-61
2022/07/11 08:58:59;;;;;;;3.78;2.80;;;19.40;99.90;;;;;;5011792;28;20022;-61
2022/07/11 09:01:30;;;;;;;8.88;2.47;;;19.70;99.90;;;;;;5012702;28;20548;-61
2022/07/11 09:03:56;;;;;;;4.38;2.70;;;19.80;99.90;;;;;;5009680;28;20042;-61
2022/07/11 09:06:21;;;;;;;4.38;2.88;;;19.80;99.90;;;;;;5011920;28;20038;-61
2022/07/11 09:08:47;;;;;;;4.72;2.72;;;20.00;99.90;;;;;;5009249;28;20452;-61
2022/07/11 09:11:13;;;;;;;5.05;3.10;;;20.10;99.90;;;;;;5012420;28;20037;-60
2022/07/11 09:13:38;;;;;;;4.15;3.25;;;20.20;99.90;;;;;;5012573;28;20030;-61
2022/07/11 09:16:06;;;;;;;4.40;2.85;;;20.20;99.90;;;;;;5011595;28;20157;-61
2022/07/11 09:18:34;;;;;;;4.32;2.67;;;20.40;99.90;;;;;;5011979;28;20120;-60
2022/07/11 09:26:42;;;;;;;5.13;2.67;;;19.60;99.90;;;;;;5012061;28;20048;-61
2022/07/11 09:29:19;;;;;;;5.78;2.95;;;19.40;99.90;;;;;;5011315;28;20377;-61
2022/07/11 09:31:46;;;;;;;4.50;2.75;;;19.40;99.90;;;;;;5011879;28;20065;-61
2022/07/11 09:34:14;;;;;;;4.07;2.83;;;19.50;99.90;;;;;;5011844;28;20080;-61
2022/07/11 09:36:50;;;;;;;4.13;2.75;;;19.50;99.90;;;;;;5010829;28;20118;-61
2022/07/11 09:39:20;;;;;;;4.32;2.50;;;19.50;99.90;;;;;;5012204;28;20076;-61
2022/07/11 09:41:49;;;;;;;;;;;19.70;99.90;;;;;;5011987;28;20113;-61
2022/07/11 09:44:19;;;;;;;3.47;2.22;;;19.90;99.90;;;;;;5011744;28;19921;-61
2022/07/11 09:46:47;;;;;;;5.57;2.90;;;20.10;99.90;;;;;;5012034;28;20120;-61
2022/07/11 09:49:14;;;;;;;4.53;2.70;;;20.40;99.90;;;;;;5011619;28;20030;-61
2022/07/11 09:51:41;;;;;;;3.65;2.50;;;20.60;99.90;;;;;;5011047;28;20124;-61
2022/07/11 09:54:08;;;;;;;4.60;2.80;;;20.70;99.90;;;;;;5010797;28;20234;-61
2022/07/11 09:56:42;;;;;;;10.60;3.28;;;20.70;99.90;;;;;;5011753;28;20467;-61
2022/07/11 09:59:10;;;;;;;4.25;2.75;;;20.70;99.90;;;;;;5010770;28;20033;-61
2022/07/11 10:01:36;;;;;;;5.45;2.92;;;20.60;99.90;;;;;;5011666;28;20065;-61
2022/07/11 10:04:04;;;;;;;4.72;3.20;;;20.60;99.90;;;;;;5010756;28;20038;-61
2022/07/11 10:06:30;;;;;;;4.30;2.80;;;20.40;99.90;;;;;;5010750;28;20036;-61
2022/07/11 10:08:56;;;;;;;4.75;2.85;;;20.20;99.90;;;;;;5010839;28;20030;-61
2022/07/11 10:11:22;;;;;;;3.95;2.63;;;20.10;99.90;;;;;;5011579;28;20117;-61
2022/07/11 10:13:48;;;;;;;4.03;2.70;;;20.10;99.90;;;;;;5011277;28;20508;-61
2022/07/11 10:16:44;;;;;;;3.60;2.17;;;20.10;99.90;;;;;;5010933;28;20109;-61
2022/07/11 10:19:25;;;;;;;4.28;2.22;;;20.20;99.90;;;;;;5010487;28;20030;-61
2022/07/11 10:22:14;;;;;;;2.83;2.00;;;20.40;99.90;;;;;;5009935;28;20037;-62
2022/07/11 10:24:43;;;;;;;2.92;2.20;;;20.60;99.90;;;;;;5011228;28;20041;-61
2022/07/11 10:27:21;;;;;;;3.17;2.20;;;20.60;99.90;;;;;;5010366;28;20026;-61
2022/07/11 10:29:52;;;;;;;2.95;1.90;;;20.70;99.90;;;;;;5010326;28;20034;-61
2022/07/11 10:32:19;;;;;;;2.58;1.83;;;20.90;99.90;;;;;;5011063;28;20026;-61
2022/07/11 10:34:46;;;;;;;3.25;2.13;;;21.00;99.90;;;;;;5010178;28;20026;-61
2022/07/11 10:37:12;;;;;;;4.10;1.80;;;21.10;99.90;;;;;;5009224;28;20839;-61
2022/07/11 10:39:39;;;;;;;3.53;2.20;;;21.20;99.90;;;;;;5007718;28;20034;-61
2022/07/11 10:42:06;;;;;;;3.03;2.20;;;21.20;99.90;;;;;;5009135;28;20030;-61
2022/07/11 10:44:53;;;;;;;2.90;2.10;;;21.20;99.90;;;;;;5010672;28;20077;-61
2022/07/11 10:47:51;;;;;;;3.70;2.20;;;21.30;99.90;;;;;;5011127;28;20037;-61
2022/07/11 10:50:33;;;;;;;2.55;1.95;;;21.40;99.90;;;;;;4998023;28;20105;-61
2022/07/11 10:53:08;;;;;;;3.60;2.25;;;21.80;99.90;;;;;;5010080;28;20057;-61
2022/07/11 10:55:41;;;;;;;5.57;1.88;;;21.90;99.90;;;;;;5010610;28;20069;-61
2022/07/11 10:58:27;;;;;;;3.38;2.28;;;21.70;99.90;;;;;;5009027;28;20044;-61
2022/07/11 11:01:10;;;;;;;3.28;2.22;;;21.70;99.90;;;;;;5009793;28;20490;-61
2022/07/11 11:03:36;;;;;;;3.28;2.40;;;21.40;99.90;;;;;;5010401;28;20038;-61
2022/07/11 11:06:02;;;;;;;4.18;2.30;;;21.20;99.90;;;;;;5008747;28;20096;-61
2022/07/11 11:11:20;;;;;;;7.38;2.20;;;21.20;99.90;;;;;;5009521;28;20034;-61
2022/07/11 11:13:46;;;;;;;4.30;2.50;;;21.20;99.90;;;;;;5005205;28;20058;-61
2022/07/11 11:16:19;;;;;;;3.63;2.30;;;21.30;99.90;;;;;;5009520;28;20056;-61
2022/07/11 11:18:45;;;;;;;3.53;2.40;;;21.20;99.90;;;;;;5010434;28;20124;-61
2022/07/11 11:21:15;;;;;;;5.88;2.65;;;21.30;99.90;;;;;;5009372;28;20109;-61
2022/07/11 11:24:02;;;;;;;6.95;2.28;;;21.50;99.90;;;;;;5009846;28;20045;-61
2022/07/11 11:26:48;;;;;;;3.00;2.15;;;21.60;99.90;;;;;;5010271;28;20049;-61
2022/07/11 11:29:22;;;;;;;3.85;2.50;;;21.60;99.90;;;;;;5009220;28;20026;-61
2022/07/11 11:31:56;;;;;;;2.92;2.28;;;21.70;99.90;;;;;;5008981;28;20446;-61
2022/07/11 11:34:22;;;;;;;4.60;2.10;;;21.70;99.90;;;;;;5008736;28;20482;-61
2022/07/11 11:36:56;;;;;;;4.13;2.30;;;21.50;99.90;;;;;;5010010;28;20034;-61
2022/07/11 11:39:33;;;;;;;3.83;2.20;;;21.60;99.90;;;;;;5008835;28;20040;-61
2022/07/11 11:42:04;;;;;;;3.47;2.17;;;21.70;99.90;;;;;;5009196;28;20030;-61
2022/07/11 11:44:31;;;;;;;3.33;2.25;;;21.70;99.90;;;;;;5009771;28;20045;-61
2022/07/11 11:46:57;;;;;;;3.17;2.25;;;21.80;99.90;;;;;;5009027;28;20484;-62
2022/07/11 11:49:23;;;;;;;4.50;2.38;;;21.70;99.90;;;;;;5009742;28;20121;-61
2022/07/11 11:51:48;;;;;;;3.42;2.28;;;21.70;99.90;;;;;;5009104;28;20109;-61
2022/07/11 11:54:23;;;;;;;4.40;2.42;;;21.60;99.90;;;;;;5007479;28;20640;-61
2022/07/11 11:56:49;;;;;;;3.45;2.30;;;21.70;99.90;;;;;;5009734;28;20394;-61
2022/07/11 11:59:15;;;;;;;7.32;2.50;;;21.80;99.90;;;;;;5008042;28;20037;-61
2022/07/11 12:01:43;;;;;;;4.18;2.50;;;21.70;99.90;;;;;;5009556;28;20364;-61
2022/07/11 12:04:16;;;;;;;4.35;2.70;;;21.40;99.90;;;;;;5008838;28;20042;-62
2022/07/11 12:06:45;;;;;;;3.10;2.40;;;21.10;99.90;;;;;;5009732;28;20034;-61
2022/07/11 12:09:13;;;;;;;6.38;2.55;;;20.90;99.90;;;;;;5008781;28;20084;-61
2022/07/11 12:11:41;;;;;;;3.97;2.53;;;20.80;99.90;;;;;;5009765;28;20062;-61
2022/07/11 12:14:09;;;;;;;4.88;2.50;;;20.50;99.90;;;;;;5007874;28;20041;-61
2022/07/11 12:16:39;;;;;;;3.05;2.17;;;20.30;99.90;;;;;;5009645;28;20117;-61
2022/07/11 12:19:07;;;;;;;3.40;2.40;;;20.20;99.90;;;;;;5009004;28;20466;-61
2022/07/11 12:21:34;;;;;;;3.55;2.40;;;20.30;99.90;;;;;;5008768;28;20042;-61
2022/07/11 12:24:04;;;;;;;3.08;2.20;;;20.40;99.90;;;;;;5007183;28;20053;-61
2022/07/11 12:26:34;;;;;;;4.45;2.65;;;20.50;99.90;;;;;;5009509;28;20037;-61
2022/07/11 12:29:07;;;;;;;4.53;2.83;;;20.60;99.90;;;;;;5008732;28;20395;-61
2022/07/11 12:31:59;;;;;;;4.00;2.50;;;20.50;99.90;;;;;;5009099;28;20493;-61
2022/07/11 12:34:31;;;;;;;4.45;2.50;;;20.60;99.90;;;;;;5009185;28;20092;-61
2022/07/11 12:37:07;;;;;;;6.07;2.70;;;20.70;99.90;;;;;;5008924;28;20037;-61
2022/07/11 12:39:35;;;;;;;5.40;2.67;;;20.90;99.90;;;;;;5008294;28;20061;-61
2022/07/11 12:42:20;;;;;;;3.90;2.83;;;21.10;99.90;;;;;;5008558;28;20037;-61
2022/07/11 12:45:07;;;;;;;4.57;2.70;;;21.20;99.90;;;;;;5009155;28;20399;-61
2022/07/11 12:47:35;;;;;;;5.13;2.70;;;21.40;99.90;;;;;;5009321;28;20033;-61
2022/07/11 12:50:22;;;;;;;4.07;3.00;;;21.50;99.90;;;;;;5008416;28;20109;-61
2022/07/11 12:52:52;;;;;;;4.10;2.65;;;21.50;99.90;;;;;;5010578;28;20033;-61
2022/07/11 12:55:29;;;;;;;3.88;2.60;;;21.60;99.90;;;;;;5011030;28;20053;-61
2022/07/11 12:58:07;;;;;;;4.07;2.72;;;21.60;99.90;;;;;;5012794;28;20038;-61
2022/07/11 13:00:36;;;;;;;4.75;3.00;;;21.50;99.90;;;;;;5012813;28;20033;-61
2022/07/11 13:03:05;;;;;;;5.95;2.67;;;21.60;99.90;;;;;;5011314;28;20463;-61